Smithville, AR (72466)

6:59 AM CDT on August 28, 2016 (GMT -0500)
Rural Ravenden Springs | | Change Station
Active Advisory: Flood Warning

Elev 680 ft 36.31 °N, 91.20 °W | Updated 13 minutes ago

Clear
Clear
71.1 °F
Feels Like 71.1 °F
N
0.0
Wind Variable Wind from ESE

Today
High -- | Low -- °F
--% Chance of Precip.
Yesterday
High -- | Low -- °F
Precip. -- in
Pressure 30.09 in
Visibility 9.0 miles
Clouds Clear
Dew Point 68 °F
Humidity 91%
Rainfall 0.00 in
Snow Depth Not available.
6:34 AM 7:37 PM
Waning Crescent, 16% visible
METAR KARG 281155Z AUTO 02005KT 9SM CLR 23/21 A3009 RMK AO1 10240 20230 52007
Pressure 30.09 in
Visibility 9.0 miles
Clouds Clear
Dew Point 68 °F
Humidity 91%
Rainfall 0.00 in
Snow Depth Not available.
6:34 AM 7:37 PM
Waning Crescent, 16% visible
METAR KARG 281155Z AUTO 02005KT 9SM CLR 23/21 A3009 RMK AO1 10240 20230 52007

10-Day Weather Forecast

Almanac

Astronomy

Aug. 28, 2016 Rise Set
Actual Time
Civil Twilight
Nautical Twilight
Astronomical Twilight
Moon
Length of Visible Light
Length of Day
Tomorrow will be .
, % of the Moon is Illuminated

Today's Extremes

State Highs State Lows

Community

WunderPhotos

Upload Photos

1,935,549 photos uploaded!

WunderBlog® & News

Nearby

Air Quality

  Air Quality AQ Index Pollutant
Not available.

Snow Depth

Station Depth Elevation

Earthquake Activity

City Distance Mag. Time & Date
Minimum magnitude displayed is 2.5.

Coastal Water Temperatures

Place Temperature

Stations

Nearby Weather Stations

Station Location Temp. Windchill Dew Point Humidity Wind Precip. Elev Updated Type
                   

Watches & Warnings

Flood Warning
Issued: 8:02 PM CDT Aug. 27, 2016 – National Weather Service

The Flood Warning continues for
the Black River at Black Rock.
* Until further notice... or until the warning is cancelled.
* At 7:00 PM Saturday the stage was 20.8 feet.
* Minor flooding is occurring and minor flooding is forecast.
* Flood stage is 14.0 feet.
* Forecast... the river will continue to fall to a stage of 19.2 feet
by Monday morning.
* Impacts at 20.0 feet... agricultural land is flooding along both
banks of the river in Lawrence, Independence, and Jackson counties.
Minor flooding in Powhatan community and courthouse State Park.


             Fld observed forecast 6 am
location stg stg day time sun Mon Tue Wed Thu

Black River
Black Rock 14 20.8 Sat 07 PM 20.3 19.2 18.3 17.5 16.8




Lat... Lon 3570 9140 3591 9125 3612 9115 3610 9101
3588 9110 3564 9128